createdAt,value
2019-04-05T00:01:11.728Z,6.80
2019-04-05T00:02:15.854Z,6.70
2019-04-05T00:03:19.567Z,7.20
2019-04-05T00:04:23.334Z,7.63
2019-04-05T00:05:26.980Z,7.67
2019-04-05T00:06:30.626Z,7.33
2019-04-05T00:07:34.267Z,7.23
2019-04-05T00:08:37.959Z,7.10
2019-04-05T00:09:41.613Z,7.83
2019-04-05T00:10:45.344Z,7.30
2019-04-05T00:11:48.982Z,6.80
2019-04-05T00:12:52.617Z,7.07
2019-04-05T00:13:56.313Z,6.33
2019-04-05T00:14:59.940Z,7.47
2019-04-05T00:16:03.594Z,7.33
2019-04-05T00:17:07.227Z,7.07
2019-04-05T00:18:11.196Z,7.23
2019-04-05T00:19:14.877Z,6.90
2019-04-05T00:20:18.513Z,7.40
2019-04-05T00:21:22.169Z,6.47
2019-04-05T00:22:25.894Z,7.00
2019-04-05T00:23:29.615Z,6.40
2019-04-05T00:24:33.284Z,6.10
2019-04-05T00:25:36.921Z,7.27
2019-04-05T00:26:40.646Z,6.30
2019-04-05T00:27:44.636Z,6.23
2019-04-05T00:28:48.278Z,6.93
2019-04-05T00:29:51.938Z,7.17
2019-04-05T00:30:55.589Z,7.37
2019-04-05T00:31:59.247Z,6.60
2019-04-05T00:33:02.908Z,7.10
2019-04-05T00:34:06.547Z,7.03
2019-04-05T00:35:10.240Z,6.40
2019-04-05T00:36:14.205Z,6.10
2019-04-05T00:37:17.854Z,6.23
2019-04-05T00:38:21.486Z,6.10
2019-04-05T00:39:25.152Z,6.43
2019-04-05T00:40:28.815Z,6.10
2019-04-05T00:41:33.172Z,6.73
2019-04-05T00:42:36.963Z,6.60
2019-04-05T00:43:40.612Z,6.83
2019-04-05T00:44:44.190Z,7.40
2019-04-05T00:45:47.866Z,6.87
2019-04-05T00:46:51.522Z,6.77
2019-04-05T00:47:55.150Z,6.77
2019-04-05T00:48:58.810Z,6.70
2019-04-05T00:50:02.805Z,6.23
2019-04-05T00:51:06.808Z,6.97
2019-04-05T00:52:10.442Z,6.00
2019-04-05T00:53:14.095Z,6.40
2019-04-05T00:54:17.754Z,6.80
2019-04-05T00:55:21.412Z,7.13
2019-04-05T00:56:25.091Z,7.13
2019-04-05T00:57:28.718Z,6.37
2019-04-05T00:58:32.374Z,6.60
2019-04-05T00:59:36.021Z,7.37
2019-04-05T01:00:39.694Z,7.47
2019-04-05T01:01:43.368Z,6.63
2019-04-05T01:02:47.039Z,6.80
2019-04-05T01:03:50.670Z,6.57
2019-04-05T01:04:54.351Z,6.90
2019-04-05T01:05:57.980Z,7.03
2019-04-05T01:07:01.686Z,6.90
2019-04-05T01:08:05.690Z,7.10
2019-04-05T01:09:09.510Z,7.10
2019-04-05T01:10:13.567Z,8.00
2019-04-05T01:11:17.320Z,7.03
2019-04-05T01:12:23.394Z,7.53
2019-04-05T01:13:28.424Z,7.20
2019-04-05T01:14:32.169Z,7.67
2019-04-05T01:15:40.993Z,6.67
2019-04-05T01:16:41.194Z,6.70
2019-04-05T01:17:44.884Z,7.53
2019-04-05T01:18:48.518Z,7.33
2019-04-05T01:19:53.622Z,7.00
2019-04-05T01:21:00.171Z,7.03
2019-04-05T01:22:06.273Z,7.23
2019-04-05T01:23:11.240Z,7.10
2019-04-05T01:24:15.478Z,7.57
2019-04-05T01:25:20.911Z,7.43
2019-04-05T01:26:25.448Z,6.43
2019-04-05T01:27:30.874Z,7.80
2019-04-05T01:28:35.090Z,7.67
2019-04-05T01:29:38.755Z,8.13
2019-04-05T01:30:42.390Z,8.13
2019-04-05T01:31:46.061Z,7.73
2019-04-05T01:32:49.706Z,8.03
2019-04-05T01:33:53.413Z,7.23
2019-04-05T01:34:57.049Z,6.90
2019-04-05T01:36:00.762Z,8.00
2019-04-05T01:37:04.488Z,7.13
2019-04-05T01:38:08.455Z,6.63
2019-04-05T01:39:12.140Z,6.83
2019-04-05T01:40:16.102Z,9.37
2019-04-05T01:41:19.757Z,7.90
2019-04-05T01:42:24.208Z,10.57
2019-04-05T01:43:28.164Z,8.70
2019-04-05T01:44:32.427Z,9.40
2019-04-05T01:45:36.192Z,10.43
2019-04-05T01:46:39.927Z,9.63
2019-04-05T01:47:43.582Z,9.10
2019-04-05T01:48:47.634Z,9.07
2019-04-05T01:49:51.324Z,9.07
2019-04-05T01:50:55.142Z,8.90
2019-04-05T01:51:58.954Z,9.10
2019-04-05T01:53:02.655Z,9.57
2019-04-05T01:54:06.290Z,8.97
2019-04-05T01:55:10.425Z,8.97
2019-04-05T01:56:14.066Z,9.73
2019-04-05T01:57:17.766Z,12.43
2019-04-05T01:58:21.500Z,14.07
2019-04-05T01:59:25.227Z,14.13
2019-04-05T02:00:28.969Z,14.47
2019-04-05T02:01:32.624Z,13.53
2019-04-05T02:02:36.259Z,12.90
2019-04-05T02:03:39.988Z,15.17
2019-04-05T02:04:43.717Z,16.03
2019-04-05T02:05:47.383Z,15.53
2019-04-05T02:06:51.105Z,14.00
2019-04-05T02:07:54.957Z,13.80
2019-04-05T02:08:58.659Z,12.93
2019-04-05T02:10:02.840Z,12.60
2019-04-05T02:11:06.608Z,11.23
2019-04-05T02:12:10.439Z,10.23
2019-04-05T02:13:14.263Z,10.80
2019-04-05T02:14:18.197Z,12.20
2019-04-05T02:15:27.313Z,12.23
2019-04-05T02:16:30.993Z,13.90
2019-04-05T02:17:36.083Z,14.40
2019-04-05T02:18:39.842Z,15.93
2019-04-05T02:19:43.571Z,16.77
2019-04-05T02:20:47.213Z,16.37
2019-04-05T02:21:51.335Z,15.17
2019-04-05T02:22:55.343Z,13.30
2019-04-05T02:23:58.995Z,13.70
2019-04-05T02:25:02.648Z,12.43
2019-04-05T02:26:06.495Z,11.27
2019-04-05T02:27:10.257Z,11.40
2019-04-05T02:28:14.009Z,10.70
2019-04-05T02:29:17.647Z,11.60
2019-04-05T02:30:21.423Z,10.57
2019-04-05T02:31:25.089Z,11.53
2019-04-05T02:32:29.189Z,11.03
2019-04-05T02:33:32.858Z,11.53
2019-04-05T02:34:36.561Z,11.07
2019-04-05T02:35:40.273Z,11.03
2019-04-05T02:36:43.905Z,9.93
2019-04-05T02:37:47.657Z,10.80
2019-04-05T02:38:51.331Z,11.03
2019-04-05T02:39:54.994Z,11.70
2019-04-05T02:41:01.121Z,10.00
2019-04-05T02:42:05.061Z,8.60
2019-04-05T02:43:09.541Z,8.10
2019-04-05T02:44:15.466Z,10.47
2019-04-05T02:45:20.503Z,10.27
2019-04-05T02:46:26.271Z,8.03
2019-04-05T02:47:30.094Z,8.37
2019-04-05T02:48:36.846Z,8.10
2019-04-05T02:49:41.881Z,8.10
2019-04-05T02:50:48.449Z,7.30
2019-04-05T02:51:53.891Z,7.67
2019-04-05T02:53:00.465Z,7.63
2019-04-05T02:54:04.625Z,7.50
2019-04-05T02:55:08.966Z,7.17
2019-04-05T02:56:14.017Z,7.27
2019-04-05T02:57:18.777Z,7.90
2019-04-05T02:58:23.009Z,8.03
2019-04-05T02:59:26.994Z,7.00
2019-04-05T03:00:32.650Z,7.77
2019-04-05T03:01:36.599Z,8.20
2019-04-05T03:02:40.951Z,8.00
2019-04-05T03:03:44.589Z,11.30
2019-04-05T03:04:48.475Z,9.70
2019-04-05T03:05:52.627Z,12.10
2019-04-05T03:06:56.368Z,12.67
2019-04-05T03:08:00.391Z,16.17
2019-04-05T03:09:06.345Z,15.40
2019-04-05T03:10:10.028Z,13.43
2019-04-05T03:11:15.372Z,14.27
2019-04-05T03:12:19.858Z,11.40
2019-04-05T03:13:24.805Z,10.77
2019-04-05T03:14:29.883Z,11.83
2019-04-05T03:15:33.553Z,11.77
2019-04-05T03:16:41.908Z,12.47
2019-04-05T03:17:45.762Z,12.60
2019-04-05T03:19:01.673Z,11.80
2019-04-05T03:20:06.947Z,10.97
2019-04-05T03:21:12.280Z,11.03
2019-04-05T03:22:16.438Z,11.00
2019-04-05T03:23:20.669Z,8.80
2019-04-05T03:24:27.321Z,8.93
2019-04-05T03:25:31.613Z,8.07
2019-04-05T03:26:38.177Z,7.80
2019-04-05T03:27:41.823Z,7.20
2019-04-05T03:28:48.647Z,7.70
2019-04-05T03:29:53.208Z,7.77
2019-04-05T03:30:57.390Z,7.47
2019-04-05T03:32:01.029Z,7.37
2019-04-05T03:33:04.774Z,6.93
2019-04-05T03:34:08.995Z,8.23
2019-04-05T03:35:12.810Z,8.57
2019-04-05T03:36:17.277Z,9.80
2019-04-05T03:37:21.489Z,12.23
2019-04-05T03:38:25.144Z,13.07
2019-04-05T03:39:29.093Z,13.67
2019-04-05T03:40:32.898Z,12.70
2019-04-05T03:41:36.742Z,13.60
2019-04-05T03:42:40.630Z,13.47
2019-04-05T03:43:45.803Z,11.77
2019-04-05T03:44:50.056Z,9.13
2019-04-05T03:45:53.986Z,8.77
2019-04-05T03:46:58.215Z,8.17
2019-04-05T03:48:02.165Z,7.67
2019-04-05T03:49:06.230Z,7.37
2019-04-05T03:50:10.081Z,6.93
2019-04-05T03:51:14.034Z,7.40
2019-04-05T03:52:17.983Z,7.97
2019-04-05T03:53:22.938Z,8.97
2019-04-05T03:54:26.859Z,8.73
2019-04-05T03:55:30.870Z,9.63
2019-04-05T03:56:37.947Z,8.70
2019-04-05T03:57:41.080Z,8.50
2019-04-05T03:58:49.396Z,8.43
2019-04-05T03:59:53.638Z,8.80
2019-04-05T04:00:57.566Z,9.03
2019-04-05T04:02:01.695Z,8.40
2019-04-05T04:03:05.793Z,9.33
2019-04-05T04:04:09.787Z,8.83
2019-04-05T04:05:13.587Z,8.17
2019-04-05T04:06:17.649Z,8.17
2019-04-05T04:07:21.371Z,8.27
2019-04-05T04:08:25.175Z,8.70
2019-04-05T04:09:29.116Z,8.33
2019-04-05T04:10:32.812Z,8.43
2019-04-05T04:11:36.645Z,7.70
2019-04-05T04:12:40.674Z,8.10
2019-04-05T04:13:44.622Z,7.40
2019-04-05T04:14:49.814Z,7.43
2019-04-05T04:15:54.748Z,8.53
2019-04-05T04:17:11.544Z,7.90
2019-04-05T04:18:05.071Z,8.70
2019-04-05T04:19:08.939Z,9.33
2019-04-05T04:20:42.874Z,7.80
2019-04-05T04:22:11.930Z,8.27
2019-04-05T04:23:15.989Z,8.23
2019-04-05T04:24:20.787Z,9.47
2019-04-05T04:25:30.017Z,9.43
2019-04-05T04:26:35.089Z,8.97
2019-04-05T04:27:39.686Z,9.10
2019-04-05T04:28:43.355Z,9.50
2019-04-05T04:29:47.773Z,9.17
2019-04-05T04:31:05.792Z,9.13
2019-04-05T04:32:10.301Z,10.30
2019-04-05T04:33:14.511Z,9.63
2019-04-05T04:34:20.058Z,9.03
2019-04-05T04:35:23.768Z,8.80
2019-04-05T04:36:27.622Z,8.80
2019-04-05T04:37:31.282Z,8.97
2019-04-05T04:38:34.925Z,9.10
2019-04-05T04:39:38.966Z,9.17
2019-04-05T04:40:42.814Z,9.97
2019-04-05T04:41:46.559Z,8.93
2019-04-05T04:42:50.472Z,8.20
2019-04-05T04:43:55.208Z,9.40
2019-04-05T04:45:11.441Z,11.33
2019-04-05T04:46:05.213Z,9.23
2019-04-05T04:47:08.864Z,9.10
2019-04-05T04:48:12.700Z,10.33
2019-04-05T04:49:16.539Z,8.13
2019-04-05T04:50:21.073Z,9.03
2019-04-05T04:51:24.898Z,8.23
2019-04-05T04:52:31.715Z,9.07
2019-04-05T04:53:35.862Z,8.73
2019-04-05T04:54:40.181Z,9.57
2019-04-05T04:55:43.867Z,9.63
2019-04-05T04:56:47.822Z,9.50
2019-04-05T04:57:51.504Z,8.57
2019-04-05T04:58:55.261Z,9.23
2019-04-05T04:59:58.907Z,9.60
2019-04-05T05:01:02.906Z,8.53
2019-04-05T05:02:06.882Z,8.30
2019-04-05T05:03:11.099Z,8.53
2019-04-05T05:04:14.829Z,8.50
2019-04-05T05:05:19.682Z,9.47
2019-04-05T05:06:23.368Z,9.47
2019-04-05T05:07:27.018Z,10.13
2019-04-05T05:08:30.651Z,9.53
2019-04-05T05:09:34.611Z,12.43
2019-04-05T05:10:38.720Z,10.00
2019-04-05T05:11:42.517Z,8.63
2019-04-05T05:12:46.482Z,9.37
2019-04-05T05:13:50.375Z,9.13
2019-04-05T05:14:54.413Z,14.83
2019-04-05T05:15:58.442Z,11.90
2019-04-05T05:17:02.126Z,10.60
2019-04-05T05:18:05.952Z,11.50
2019-04-05T05:19:09.679Z,10.33
2019-04-05T05:20:13.373Z,9.50
2019-04-05T05:21:17.097Z,13.97
2019-04-05T05:22:20.792Z,9.60
2019-04-05T05:23:24.546Z,9.17
2019-04-05T05:24:29.038Z,10.83
2019-04-05T05:25:36.126Z,10.33
2019-04-05T05:26:39.822Z,9.93
2019-04-05T05:27:45.076Z,8.87
2019-04-05T05:28:48.919Z,8.67
2019-04-05T05:29:52.754Z,8.63
2019-04-05T05:30:56.998Z,9.20
2019-04-05T05:32:00.897Z,8.67
2019-04-05T05:33:04.727Z,8.97
2019-04-05T05:34:08.685Z,8.70
2019-04-05T05:35:12.898Z,8.80
2019-04-05T05:36:16.929Z,9.30
2019-04-05T05:37:20.992Z,7.53
2019-04-05T05:38:24.829Z,8.77
2019-04-05T05:39:28.471Z,9.40
2019-04-05T05:40:35.114Z,10.23
2019-04-05T05:41:37.490Z,8.70
2019-04-05T05:42:41.650Z,8.13
2019-04-05T05:43:45.383Z,8.63
2019-04-05T05:44:49.053Z,8.43
2019-04-05T05:45:52.714Z,8.40
2019-04-05T05:46:56.374Z,7.97
2019-04-05T05:48:00.610Z,8.03
2019-04-05T05:49:04.669Z,10.60
2019-04-05T05:50:08.468Z,8.33
2019-04-05T05:51:12.522Z,7.60
2019-04-05T05:52:16.394Z,7.93
2019-04-05T05:53:20.252Z,6.97
2019-04-05T05:54:23.913Z,7.50
2019-04-05T05:55:30.110Z,8.80
2019-04-05T05:56:32.949Z,8.33
2019-04-05T05:57:36.595Z,8.20
2019-04-05T05:58:40.243Z,7.97
2019-04-05T05:59:43.899Z,7.83
2019-04-05T06:00:47.599Z,7.90
2019-04-05T06:01:51.235Z,7.43
2019-04-05T06:02:59.530Z,6.87
2019-04-05T06:04:03.192Z,7.97
2019-04-05T06:05:06.971Z,7.10
2019-04-05T06:06:10.682Z,7.47
2019-04-05T06:07:14.330Z,6.93
2019-04-05T06:08:17.977Z,7.13
2019-04-05T06:09:21.629Z,7.17
2019-04-05T06:10:25.287Z,8.47
2019-04-05T06:11:29.010Z,8.17
2019-04-05T06:12:32.653Z,6.50
2019-04-05T06:13:36.308Z,7.37
2019-04-05T06:14:39.957Z,5.37
2019-04-05T06:15:43.612Z,5.53
2019-04-05T06:16:47.308Z,5.50
2019-04-05T06:18:03.826Z,6.07
2019-04-05T06:18:56.411Z,6.13
2019-04-05T06:20:01.554Z,6.00
2019-04-05T06:21:05.758Z,5.97
2019-04-05T06:22:09.401Z,6.40
2019-04-05T06:23:13.097Z,5.77
2019-04-05T06:24:16.798Z,5.80
2019-04-05T06:25:22.141Z,5.60
2019-04-05T06:26:25.725Z,6.13
2019-04-05T06:27:30.992Z,5.80
2019-04-05T06:28:34.702Z,5.67
2019-04-05T06:29:38.313Z,5.93
2019-04-05T06:30:41.969Z,6.63
2019-04-05T06:31:45.676Z,6.40
2019-04-05T06:32:49.428Z,6.07
2019-04-05T06:33:53.166Z,6.40
2019-04-05T06:34:56.890Z,5.77
2019-04-05T06:36:00.536Z,6.00
2019-04-05T06:37:04.190Z,6.03
2019-04-05T06:38:07.919Z,6.33
2019-04-05T06:39:11.596Z,5.83
2019-04-05T06:40:15.253Z,5.67
2019-04-05T06:41:18.877Z,6.77
2019-04-05T06:42:22.509Z,6.47
2019-04-05T06:43:26.197Z,6.00
2019-04-05T06:44:30.522Z,5.80
2019-04-05T06:45:34.157Z,6.27
2019-04-05T06:46:37.809Z,6.33
2019-04-05T06:47:43.660Z,6.80
2019-04-05T06:48:47.279Z,6.50
2019-04-05T06:49:50.985Z,5.90
2019-04-05T06:50:54.708Z,5.37
2019-04-05T06:51:58.377Z,5.57
2019-04-05T06:53:02.081Z,5.90
2019-04-05T06:54:05.731Z,6.27
2019-04-05T06:55:09.407Z,6.20
2019-04-05T06:56:13.061Z,5.60
2019-04-05T06:57:16.698Z,6.40
2019-04-05T06:58:20.556Z,5.80
2019-04-05T06:59:24.222Z,5.70
2019-04-05T07:00:29.520Z,5.63
2019-04-05T07:01:33.270Z,6.80
2019-04-05T07:02:36.913Z,6.33
2019-04-05T07:03:40.560Z,6.30
2019-04-05T07:04:44.209Z,6.10
2019-04-05T07:05:47.870Z,5.77
2019-04-05T07:06:51.516Z,6.00
2019-04-05T07:07:55.180Z,6.23
2019-04-05T07:08:58.833Z,6.20
2019-04-05T07:10:02.479Z,7.30
2019-04-05T07:11:06.173Z,6.87
2019-04-05T07:12:09.834Z,7.33
2019-04-05T07:13:13.463Z,6.17
2019-04-05T07:14:18.547Z,5.93
2019-04-05T07:15:22.165Z,5.83
2019-04-05T07:16:25.863Z,11.17
2019-04-05T07:17:31.176Z,6.73
2019-04-05T07:18:36.284Z,5.80
2019-04-05T07:19:40.241Z,5.80
2019-04-05T07:20:43.895Z,7.10
2019-04-05T07:21:47.583Z,6.90
2019-04-05T07:22:51.313Z,5.67
2019-04-05T07:23:54.897Z,5.97
2019-04-05T07:24:58.912Z,5.97
2019-04-05T07:26:02.717Z,6.70
2019-04-05T07:27:06.483Z,5.93
2019-04-05T07:28:10.190Z,6.67
2019-04-05T07:29:13.847Z,7.53
2019-04-05T07:30:17.572Z,7.23
2019-04-05T07:31:21.577Z,6.83
2019-04-05T07:32:25.332Z,7.50
2019-04-05T07:33:28.970Z,6.43
2019-04-05T07:34:33.024Z,6.47
2019-04-05T07:35:36.878Z,5.33
2019-04-05T07:36:40.622Z,5.63
2019-04-05T07:37:44.469Z,6.03
2019-04-05T07:38:48.198Z,5.73
2019-04-05T07:39:51.903Z,6.03
2019-04-05T07:40:55.698Z,6.03
2019-04-05T07:41:59.503Z,6.37
2019-04-05T07:43:03.161Z,6.50
2019-04-05T07:44:06.810Z,5.90
2019-04-05T07:45:11.106Z,5.63
2019-04-05T07:46:14.854Z,6.10
2019-04-05T07:47:18.500Z,5.80
2019-04-05T07:48:22.159Z,5.97
2019-04-05T07:49:25.803Z,5.67
2019-04-05T07:50:29.526Z,5.97
2019-04-05T07:51:33.193Z,6.57
2019-04-05T07:52:36.904Z,6.27
2019-04-05T07:53:40.638Z,7.13
2019-04-05T07:54:44.569Z,5.43
2019-04-05T07:55:48.288Z,6.00
2019-04-05T07:56:51.990Z,6.40
2019-04-05T07:57:55.695Z,5.83
2019-04-05T07:58:59.428Z,5.70
2019-04-05T08:00:04.593Z,6.40
2019-04-05T08:01:08.635Z,6.43
2019-04-05T08:02:12.371Z,5.63
2019-04-05T08:03:16.198Z,5.87
2019-04-05T08:04:19.846Z,6.60
2019-04-05T08:05:23.489Z,6.03
2019-04-05T08:06:27.941Z,6.03
2019-04-05T08:07:34.541Z,6.03
2019-04-05T08:08:46.865Z,6.43
2019-04-05T08:09:50.798Z,6.60
2019-04-05T08:10:56.326Z,5.87
2019-04-05T08:12:00.506Z,6.10
2019-04-05T08:13:04.932Z,6.07
2019-04-05T08:14:10.323Z,6.07
2019-04-05T08:15:14.191Z,5.80
2019-04-05T08:16:17.918Z,6.33
2019-04-05T08:17:21.643Z,6.17
2019-04-05T08:18:25.325Z,6.90
2019-04-05T08:19:28.981Z,6.80
2019-04-05T08:20:32.605Z,5.40
2019-04-05T08:21:36.324Z,6.53
2019-04-05T08:22:40.085Z,6.07
2019-04-05T08:23:43.871Z,5.83
2019-04-05T08:24:47.506Z,6.93
2019-04-05T08:25:51.231Z,6.40
2019-04-05T08:26:56.407Z,6.17
2019-04-05T08:28:00.066Z,6.93
2019-04-05T08:29:04.053Z,6.23
2019-04-05T08:30:07.899Z,5.87
2019-04-05T08:31:14.435Z,6.80
2019-04-05T08:32:21.468Z,6.87
2019-04-05T08:33:23.310Z,7.10
2019-04-05T08:34:27.046Z,6.30
2019-04-05T08:35:30.803Z,6.50
2019-04-05T08:36:34.458Z,6.47
2019-04-05T08:37:38.180Z,6.40
2019-04-05T08:38:41.904Z,6.90
2019-04-05T08:39:45.557Z,6.93
2019-04-05T08:40:49.228Z,5.97
2019-04-05T08:41:52.961Z,6.23
2019-04-05T08:42:56.729Z,6.03
2019-04-05T08:44:00.465Z,6.90
2019-04-05T08:45:05.215Z,5.90
2019-04-05T08:46:08.917Z,7.17
2019-04-05T08:47:13.042Z,6.30
2019-04-05T08:48:16.758Z,7.30
2019-04-05T08:49:20.411Z,6.97
2019-04-05T08:50:24.076Z,6.80
2019-04-05T08:51:27.735Z,7.40
2019-04-05T08:52:31.447Z,7.40
2019-04-05T08:53:35.104Z,7.03
2019-04-05T08:54:38.739Z,6.73
2019-04-05T08:55:42.474Z,7.37
2019-04-05T08:56:46.178Z,7.00
2019-04-05T08:57:49.873Z,6.40
2019-04-05T08:58:53.526Z,7.67
2019-04-05T08:59:57.156Z,7.57
2019-04-05T09:01:00.827Z,6.57
2019-04-05T09:02:04.515Z,7.50
2019-04-05T09:03:08.149Z,7.17
2019-04-05T09:04:11.891Z,7.33
2019-04-05T09:05:15.678Z,7.03
2019-04-05T09:06:20.050Z,7.10
2019-04-05T09:07:28.193Z,6.33
2019-04-05T09:08:31.840Z,6.77
2019-04-05T09:09:35.597Z,7.00
2019-04-05T09:10:39.241Z,6.27
2019-04-05T09:11:42.899Z,7.33
2019-04-05T09:12:46.655Z,6.57
2019-04-05T09:13:50.308Z,6.70
2019-04-05T09:14:53.892Z,7.13
2019-04-05T09:15:57.542Z,6.87
2019-04-05T09:17:01.173Z,8.83
2019-04-05T09:18:04.846Z,7.70
2019-04-05T09:19:08.802Z,7.90
2019-04-05T09:20:12.446Z,6.93
2019-04-05T09:21:17.748Z,7.70
2019-04-05T09:22:21.529Z,7.70
2019-04-05T09:23:25.226Z,7.63
2019-04-05T09:24:28.853Z,7.83
2019-04-05T09:25:32.566Z,7.50
2019-04-05T09:26:36.270Z,7.67
2019-04-05T09:27:39.995Z,8.47
2019-04-05T09:28:43.739Z,7.30
2019-04-05T09:29:47.322Z,7.23
2019-04-05T09:30:51.958Z,7.70
2019-04-05T09:31:55.881Z,7.97
2019-04-05T09:32:59.553Z,7.93
2019-04-05T09:34:03.320Z,7.87
2019-04-05T09:35:07.324Z,7.77
2019-04-05T09:36:11.057Z,8.33
2019-04-05T09:37:14.720Z,7.50
2019-04-05T09:38:18.312Z,7.93
2019-04-05T09:39:22.017Z,7.07
2019-04-05T09:40:25.671Z,6.97
2019-04-05T09:41:29.255Z,7.70
2019-04-05T09:42:32.846Z,7.67
2019-04-05T09:43:36.526Z,6.70
2019-04-05T09:44:40.185Z,6.77
2019-04-05T09:45:43.858Z,7.17
2019-04-05T09:46:51.055Z,7.17
2019-04-05T09:47:53.236Z,7.03
2019-04-05T09:48:56.942Z,6.70
2019-04-05T09:50:02.218Z,6.70
2019-04-05T09:51:07.213Z,7.53
2019-04-05T09:52:11.132Z,7.77
2019-04-05T09:53:14.873Z,6.83
2019-04-05T09:54:18.964Z,7.37
2019-04-05T09:55:27.112Z,6.77
2019-04-05T09:56:30.765Z,8.23
2019-04-05T09:57:34.430Z,7.50
2019-04-05T09:58:38.083Z,7.63
2019-04-05T09:59:41.760Z,7.23
2019-04-05T10:00:45.423Z,7.27
2019-04-05T10:01:49.476Z,7.77
2019-04-05T10:02:53.218Z,7.47
2019-04-05T10:03:56.880Z,7.00
2019-04-05T10:05:00.541Z,7.30
2019-04-05T10:06:04.546Z,6.87
2019-04-05T10:07:08.481Z,7.47
2019-04-05T10:08:13.382Z,8.07
2019-04-05T10:09:16.997Z,7.57
2019-04-05T10:10:20.722Z,7.67
2019-04-05T10:11:24.373Z,8.70
2019-04-05T10:12:28.024Z,9.20
2019-04-05T10:13:31.661Z,11.23
2019-04-05T10:14:35.303Z,12.00
2019-04-05T10:15:38.947Z,19.60
2019-04-05T10:16:42.613Z,18.93
2019-04-05T10:17:46.265Z,10.73
2019-04-05T10:18:51.531Z,8.37
2019-04-05T10:19:55.426Z,13.17
2019-04-05T10:21:02.265Z,11.23
2019-04-05T10:22:22.487Z,9.27
2019-04-05T10:23:30.672Z,9.17
2019-04-05T10:24:34.798Z,8.60
2019-04-05T10:25:44.842Z,12.20
2019-04-05T10:26:48.533Z,8.23
2019-04-05T10:27:52.651Z,8.73
2019-04-05T10:28:56.290Z,6.73
2019-04-05T10:29:59.920Z,6.87
2019-04-05T10:31:03.583Z,7.20
2019-04-05T10:32:07.280Z,6.57
2019-04-05T10:33:10.934Z,7.73
2019-04-05T10:34:14.597Z,8.03
2019-04-05T10:35:18.245Z,6.70
2019-04-05T10:36:21.955Z,8.20
2019-04-05T10:37:25.638Z,7.33
2019-04-05T10:38:29.295Z,7.87
2019-04-05T10:39:33.023Z,7.27
2019-04-05T10:40:36.678Z,6.60
2019-04-05T10:41:42.111Z,7.40
2019-04-05T10:42:45.872Z,6.90
2019-04-05T10:43:49.518Z,7.30
2019-04-05T10:44:53.244Z,7.70
2019-04-05T10:45:56.919Z,7.50
2019-04-05T10:47:00.568Z,6.97
2019-04-05T10:48:04.267Z,7.17
2019-04-05T10:49:07.904Z,7.63
2019-04-05T10:50:13.622Z,7.83
2019-04-05T10:51:17.268Z,8.23
2019-04-05T10:52:20.930Z,8.13
2019-04-05T10:53:24.625Z,8.03
2019-04-05T10:54:28.262Z,6.80
2019-04-05T10:55:31.902Z,7.57
2019-04-05T10:56:35.562Z,7.43
2019-04-05T10:57:39.234Z,6.97
2019-04-05T10:58:42.940Z,7.83
2019-04-05T10:59:46.584Z,7.47
2019-04-05T11:00:50.323Z,8.27
2019-04-05T11:01:54.025Z,8.77
2019-04-05T11:02:57.735Z,9.20
2019-04-05T11:04:01.428Z,8.53
2019-04-05T11:05:05.445Z,8.00
2019-04-05T11:06:09.427Z,9.30
2019-04-05T11:07:13.073Z,8.47
2019-04-05T11:08:16.797Z,9.20
2019-04-05T11:09:20.587Z,8.37
2019-04-05T11:10:24.281Z,7.97
2019-04-05T11:11:27.957Z,7.77
2019-04-05T11:12:31.648Z,6.97
2019-04-05T11:13:35.692Z,6.87
2019-04-05T11:14:39.301Z,7.57
2019-04-05T11:15:42.946Z,8.23
2019-04-05T11:16:57.793Z,7.33
2019-04-05T11:17:52.057Z,6.70
2019-04-05T11:18:55.757Z,7.37
2019-04-05T11:19:59.459Z,7.20
2019-04-05T11:21:03.103Z,7.00
2019-04-05T11:22:06.830Z,7.33
2019-04-05T11:23:10.580Z,6.70
2019-04-05T11:24:14.368Z,6.43
2019-04-05T11:25:20.628Z,7.70
2019-04-05T11:26:23.897Z,7.90
2019-04-05T11:27:27.645Z,6.80
2019-04-05T11:28:31.321Z,7.10
2019-04-05T11:29:35.432Z,7.60
2019-04-05T11:30:44.321Z,7.00
2019-04-05T11:31:56.964Z,6.33
2019-04-05T11:32:53.443Z,7.10
2019-04-05T11:33:57.218Z,7.60
2019-04-05T11:35:00.960Z,7.50
2019-04-05T11:36:04.740Z,7.00
2019-04-05T11:37:08.392Z,6.80
2019-04-05T11:38:12.807Z,7.67
2019-04-05T11:39:16.455Z,7.03
2019-04-05T11:40:20.322Z,7.33
2019-04-05T11:41:26.319Z,7.33
2019-04-05T11:42:32.987Z,7.50
2019-04-05T11:43:37.379Z,7.77
2019-04-05T11:44:43.103Z,7.13
2019-04-05T11:45:48.553Z,6.73
2019-04-05T11:46:52.903Z,7.40
2019-04-05T11:47:57.723Z,7.23
2019-04-05T11:49:03.718Z,7.20
2019-04-05T11:50:12.709Z,7.03
2019-04-05T11:51:16.366Z,7.13
2019-04-05T11:52:20.222Z,7.43
2019-04-05T11:53:23.959Z,7.47
2019-04-05T11:54:27.545Z,7.03
2019-04-05T11:55:31.197Z,7.00
2019-04-05T11:56:34.824Z,7.67
2019-04-05T11:57:41.154Z,7.80
2019-04-05T11:58:48.522Z,7.20
2019-04-05T11:59:51.259Z,7.07
2019-04-05T12:01:12.564Z,7.27
2019-04-05T12:02:17.993Z,6.73
2019-04-05T12:03:32.068Z,7.47
2019-04-05T12:04:35.775Z,7.00
2019-04-05T12:05:39.424Z,6.93
2019-04-05T12:06:43.145Z,7.63
2019-04-05T12:07:46.794Z,6.73
2019-04-05T12:08:50.475Z,7.70
2019-04-05T12:09:54.204Z,6.57
2019-04-05T12:10:58.119Z,7.43
2019-04-05T12:12:01.779Z,7.60
2019-04-05T12:13:05.426Z,6.83
2019-04-05T12:14:09.209Z,7.00
2019-04-05T12:15:13.333Z,7.33
2019-04-05T12:16:17.037Z,7.10
2019-04-05T12:17:20.760Z,6.73
2019-04-05T12:18:24.343Z,7.73
2019-04-05T12:19:28.036Z,8.10
2019-04-05T12:20:33.338Z,7.30
2019-04-05T12:21:37.484Z,7.60
2019-04-05T12:22:41.167Z,7.20
2019-04-05T12:23:44.805Z,7.67
2019-04-05T12:24:48.493Z,7.20
2019-04-05T12:25:54.428Z,7.40
2019-04-05T12:26:57.658Z,7.30
2019-04-05T12:28:06.882Z,7.60
2019-04-05T12:29:06.626Z,8.30
2019-04-05T12:30:12.655Z,7.53
2019-04-05T12:31:16.472Z,7.53
2019-04-05T12:32:32.985Z,7.07
2019-04-05T12:33:27.135Z,7.73
2019-04-05T12:34:30.764Z,7.83
2019-04-05T12:35:37.441Z,7.33
2019-04-05T12:36:39.922Z,7.37
2019-04-05T12:37:50.161Z,7.27
2019-04-05T12:38:49.407Z,7.50
2019-04-05T12:39:53.046Z,7.80
2019-04-05T12:40:57.236Z,7.40
2019-04-05T12:42:00.875Z,7.50
2019-04-05T12:43:04.540Z,7.53
2019-04-05T12:44:08.198Z,6.93
2019-04-05T12:45:15.299Z,6.93
2019-04-05T12:46:18.560Z,6.77
2019-04-05T12:47:22.226Z,7.73
2019-04-05T12:48:25.874Z,6.97
2019-04-05T12:49:29.534Z,7.57
2019-04-05T12:50:33.201Z,7.00
2019-04-05T12:51:36.904Z,7.73
2019-04-05T12:52:40.532Z,8.00
2019-04-05T12:53:44.190Z,7.30
2019-04-05T12:54:50.975Z,7.23
2019-04-05T12:55:56.234Z,7.77
2019-04-05T12:56:58.736Z,7.27
2019-04-05T12:58:02.388Z,7.33
2019-04-05T12:59:06.115Z,7.20
2019-04-05T13:00:13.582Z,7.03
2019-04-05T13:01:17.318Z,8.33
2019-04-05T13:02:33.370Z,8.00
2019-04-05T13:03:29.093Z,8.30
2019-04-05T13:04:32.757Z,7.43
2019-04-05T13:05:36.409Z,7.47
2019-04-05T13:06:42.314Z,8.13
2019-04-05T13:07:45.477Z,8.03
2019-04-05T13:08:49.129Z,8.77
2019-04-05T13:09:54.939Z,8.93
2019-04-05T13:10:58.184Z,8.50
2019-04-05T13:12:01.797Z,8.43
2019-04-05T13:13:05.488Z,7.80
2019-04-05T13:14:09.223Z,7.17
2019-04-05T13:15:16.967Z,7.60
2019-04-05T13:16:18.643Z,8.40
2019-04-05T13:17:22.315Z,9.77
2019-04-05T13:18:25.994Z,10.30
2019-04-05T13:19:30.717Z,8.63
2019-04-05T13:20:34.894Z,8.87
2019-04-05T13:21:38.520Z,8.50
2019-04-05T13:22:42.189Z,8.17
2019-04-05T13:23:45.876Z,8.13
2019-04-05T13:24:49.591Z,8.30
2019-04-05T13:25:53.245Z,8.83
2019-04-05T13:26:56.973Z,11.00
2019-04-05T13:28:12.455Z,14.30
2019-04-05T13:29:09.970Z,10.57
2019-04-05T13:30:18.357Z,9.57
2019-04-05T13:31:20.089Z,8.90
2019-04-05T13:32:23.744Z,9.40
2019-04-05T13:33:28.980Z,8.10
2019-04-05T13:34:32.865Z,8.53
2019-04-05T13:35:36.528Z,8.97
2019-04-05T13:36:40.182Z,8.77
2019-04-05T13:37:43.831Z,8.43
2019-04-05T13:38:54.654Z,8.60
2019-04-05T13:39:52.892Z,10.07
2019-04-05T13:40:57.000Z,14.67
2019-04-05T13:42:01.784Z,9.33
2019-04-05T13:43:06.127Z,9.67
2019-04-05T13:44:09.925Z,9.37
2019-04-05T13:45:14.007Z,10.53
2019-04-05T13:46:22.227Z,9.90
2019-04-05T13:47:23.360Z,9.10
2019-04-05T13:48:27.021Z,8.67
2019-04-05T13:49:30.672Z,8.27
2019-04-05T13:50:34.425Z,9.03
2019-04-05T13:51:41.580Z,8.37
2019-04-05T13:52:44.822Z,8.37
2019-04-05T13:53:48.469Z,7.83
2019-04-05T13:54:52.124Z,8.50
2019-04-05T13:55:55.813Z,8.17
2019-04-05T13:56:59.476Z,8.73
2019-04-05T13:58:03.121Z,7.97
2019-04-05T13:59:06.777Z,8.83
2019-04-05T14:00:12.392Z,8.63
2019-04-05T14:01:15.982Z,8.17
2019-04-05T14:02:21.692Z,8.20
2019-04-05T14:03:25.016Z,8.33
2019-04-05T14:04:29.832Z,8.27
2019-04-05T14:05:33.877Z,8.57
2019-04-05T14:06:37.879Z,11.73
2019-04-05T14:07:41.554Z,11.03
2019-04-05T14:08:45.181Z,9.33
2019-04-05T14:09:48.839Z,9.07
2019-04-05T14:10:52.858Z,8.90
2019-04-05T14:11:56.646Z,8.77
2019-04-05T14:13:00.286Z,8.53